Amity, ME

6:19 AM EDT on October 24, 2014 (GMT -0400)
Houlton International | Change Station
CLOSE
Current Station
Airport
Location: Houlton,
Elevation: 492 ft
Nearby Weather Stations
Active Advisory: Areal Flood Advisory Active Notice: Record Report

Elev 492 ft 46.12 °N, 67.79 °W | Updated 26 minutes ago

Rain
Rain
43 °F
Feels Like 39 °F
N
7
Wind Variable Wind from North

Today
High -- | Low -- °F
--% Chance of Precip.
Yesterday
High -- | Low -- °F
Precip. -- in
7:00 AM 5:30 PM
New Moon, 0% visible
Pressure 29.77 in
Visibility 4.0 miles
Clouds Few 600 ft
Overcast 1700 ft
Windchill 39 °F
Dew Point 41 °F
Humidity 93%
Rainfall 0.51 in
Snow Depth Not available.
UV 0 out of 12
Pollen .10 out of 12
PM2.5 Good
Flu Activity Sporadic
METAR KHUL 240953Z AUTO 36006KT 4SM RA BR FEW006 OVC017 06/05 A2975 RMK AO2 SLP079 P0014 T00610050

More Conditions Fewer Conditions

Pressure 29.77 in
Visibility 4.0 miles
Clouds Few 600 ft
Overcast 1700 ft
Windchill 39 °F
Dew Point 41 °F
Humidity 93%
Rainfall 0.51 in
Snow Depth Not available.
UV 0 out of 12
Pollen .10 out of 12
PM2.5 Good
Flu Activity Sporadic
METAR KHUL 240953Z AUTO 36006KT 4SM RA BR FEW006 OVC017 06/05 A2975 RMK AO2 SLP079 P0014 T00610050

More Conditions Fewer Conditions

10-Day Weather Forecast

Almanac

Astronomy

Oct. 24, 2014 Rise Set
Actual Time 7:00 AM EDT 5:30 PM EDT
Civil Twilight 6:29 AM EDT 6:00 PM EDT
Nautical Twilight 5:54 AM EDT 6:35 PM EDT
Astronomical Twilight 5:20 AM EDT 7:09 PM EDT
Moon 7:37 AM EDT 6:05 PM EDT
Length of Visible Light 11h 30m
Length of Day
10h 29m
Tomorrow will be 3m 2s shorter.
New Moon, 0% of the Moon is Illuminated
Today
New Moon
Oct 30
First Quarter
Nov 6
Full
Nov 14
Last Quarter
Nov 22
New

Today's Extremes

State Highs State Lows

Community

WunderPhotos

Upload Photos

1,764,513 photos uploaded!

WunderBlogs® & News

Nearby

Air Quality

  Air Quality AQ Index Pollutant
Yesterday Good
OZONE
Yesterday Good
PM2.5
Current Good
PM2.5
Friday Good
OZONE
Friday Good
PM2.5
Saturday Good
OZONE
Saturday Good
PM2.5

Snow Depth

Station Depth Elevation
No new snow has been reported.

Earthquake Activity

City Distance Mag. Time & Date
No recent earthquake activity has been reported nearby.
Minimum magnitude displayed is 2.5.

Coastal Water Temperatures

Place Temperature
No Stations Reporting

Nearby Weather Stations